Terminal Aerodrome Forecast
Issued by NWS

Home | Current Version | Previous Version | Text Only | Print | Product List | Glossary On
Versions: 1 2 3 4 5 6 7 8 9 10 11 12 13 14 15 16 17 18 19 20 21 22
000
FTUS41 KPBZ 040520
TAFDUJ
TAF
KDUJ 040520Z 0406/0506 VRB03KT 5SM BR SKC
     FM040800 VRB03KT 2SM BR SKC
      TEMPO 0408/0412 1/4SM FG OVC001
     FM041400 27012G20KT P6SM BKN035
     FM042300 VRB05KT P6SM SCT035=

USA.gov is the U.S. government's official web portal to all federal, state and local government web resources and services.